• Join FlightAware (Why Join?)
  • Login
  • US Flag 
03:46AM EST


 

Airport Tracker/Info


-or-


 

Live Flight TrackerFlight Track Log ✈ CCA4523 ✈ 22-Jul-2014 ✈ ZUJZ / JZH - ZSPD / PVG

Flight Track Log - Related Links

Times and Time Zones

All times are in EDT time to prevent confusion due to time zone crossing. See the CCA4523 flight status page for this flight to view local times or setup timezone preferences in your user account.

Time Position Orientation Groundspeed Altitude Reporting Facility
EDT Latitude Longitude Course Direction KTS MPH feet Rate Location/Type
01:54AM 32.8434 104.2483 91° East  Level Estimated
01:55AM 32.8396 104.3896 92° East  Level Estimated
01:56AM 32.8356 104.5309 92° East  Level Estimated
01:57AM 32.8315 104.6722 92° East  Level Estimated
01:58AM 32.8272 104.8134 92° East  Level Estimated
01:59AM 32.8228 104.9547 92° East  Level Estimated
02:00AM 32.8182 105.0959 92° East  Level Estimated
02:01AM 32.8135 105.2371 92° East  Level Estimated
02:02AM 32.8086 105.3783 92° East  Level Estimated
02:03AM 32.8035 105.5195 92° East  Level Estimated
02:04AM 32.7982 105.6607 92° East  Level Estimated
02:05AM 32.7929 105.8018 93° East  Level Estimated
02:06AM 32.7873 105.9429 93° East  Level Estimated
02:07AM 32.7816 106.0841 93° East  Level Estimated
02:08AM 32.7758 106.2252 93° East  Level Estimated
02:09AM 32.7697 106.3662 93° East  Level Estimated
02:10AM 32.7636 106.5073 93° East  Level Estimated
02:11AM 32.7572 106.6483 93° East  Level Estimated
02:12AM 32.7507 106.7894 93° East  Level Estimated
02:13AM 32.7441 106.9304 93° East  Level Estimated
02:14AM 32.7373 107.0713 93° East  Level Estimated
02:15AM 32.7303 107.2123 93° East  Level Estimated
02:16AM 32.7232 107.3532 93° East  Level Estimated
02:17AM 32.7159 107.4941 93° East  Level Estimated
02:18AM 32.7085 107.6350 94° East  Level Estimated
02:19AM 32.7009 107.7759 94° East  Level Estimated
02:20AM 32.6931 107.9167 94° East  Level Estimated
02:21AM 32.6852 108.0575 94° East  Level Estimated
02:22AM 32.6771 108.1983 94° East  Level Estimated
02:23AM 32.6689 108.3391 94° East  Level Estimated
02:24AM 32.6605 108.4798 94° East  Level Estimated
02:25AM 32.6520 108.6206 94° East  Level Estimated
02:26AM 32.6433 108.7612 94° East  Level Estimated
02:27AM 32.6344 108.9019 94° East  Level Estimated
02:28AM 32.6254 109.0425 94° East  Level Estimated
02:29AM 32.6163 109.1831 94° East  Level Estimated
02:30AM 32.6069 109.3237 94° East  Level Estimated
02:31AM 32.5975 109.4642 95° East  Level Estimated
02:32AM 32.5878 109.6047 95° East  Level Estimated
02:33AM 32.5780 109.7452 95° East  Level Estimated
02:34AM 32.5681 109.8857 95° East  Level Estimated
02:35AM 32.5580 110.0261 95° East  Level Estimated
02:36AM 32.5477 110.1665 95° East  Level Estimated
02:37AM 32.5373 110.3068 95° East  Level Estimated
02:38AM 32.5267 110.4472 95° East  Level Estimated
02:39AM 32.5160 110.5874 95° East  Level Estimated
02:40AM 32.5051 110.7277 95° East  Level Estimated
02:41AM 32.4941 110.8679 95° East  Level Estimated
02:42AM 32.4829 111.0081 95° East  Level Estimated
02:43AM 32.4715 111.1482 95° East  Level Estimated
02:44AM 32.4600 111.2884 96° East  Level Estimated
02:45AM 32.4484 111.4285 96° East  Level Estimated
02:46AM 32.4365 111.5685 96° East  Level Estimated
02:47AM 32.4246 111.7085 96° East  Level Estimated
02:48AM 32.4124 111.8485 96° East  Level Estimated
02:49AM 32.4002 111.9884 96° East  Level Estimated
02:50AM 32.3877 112.1283 96° East  Level Estimated
02:51AM 32.3751 112.2681 96° East  Level Estimated
02:52AM 32.3624 112.4080 96° East  Level Estimated
02:53AM 32.3495 112.5477 96° East  Level Estimated
02:54AM 32.3364 112.6875 96° East  Level Estimated
02:55AM 32.3232 112.8272 96° East  Level Estimated
02:56AM 32.3099 112.9668 96° East  Level Estimated
02:57AM 32.2964 113.1064 96° East  Level Estimated
02:58AM 32.2827 113.2460 97° East  Level Estimated
02:59AM 32.2689 113.3855 97° East  Level Estimated
03:00AM 32.2549 113.5250 97° East  Level Estimated
03:01AM 32.2408 113.6644 97° East  Level Estimated
03:02AM 32.2265 113.8038 97° East  Level Estimated
03:03AM 32.2121 113.9432 97° East  Level Estimated
03:04AM 32.1975 114.0825 97° East  Level Estimated
03:05AM 32.1827 114.2218 97° East  Level Estimated
03:06AM 32.1678 114.3610 97° East  Level Estimated
03:07AM 32.1528 114.5002 97° East  Level Estimated
03:08AM 32.1376 114.6393 97° East  Level Estimated
03:09AM 32.1223 114.7784 97° East  Level Estimated
03:10AM 32.1068 114.9174 97° East  Level Estimated
03:11AM 32.0911 115.0564 98° East  Level Estimated
03:12AM 32.0753 115.1953 98° East  Level Estimated
03:13AM 32.0593 115.3342 98° East  Level Estimated
03:14AM 32.0432 115.4731 98° East  Level Estimated
03:15AM 32.0270 115.6118 98° East  Level Estimated
03:16AM 32.0106 115.7506 98° East  Level Estimated
03:17AM 31.9940 115.8893 98° East  Level Estimated
03:18AM 31.9773 116.0279 98° East  Level Estimated
03:19AM 31.9604 116.1665 98° East  Level Estimated
03:20AM 31.9434 116.3051 98° East  Level Estimated
03:21AM 31.9263 116.4436 98° East  Level Estimated
03:22AM 31.9090 116.5820 98° East  Level Estimated
03:23AM 31.8915 116.7204 98° East  Level Estimated
03:24AM 31.8739 116.8587 98° East  Level Estimated
03:25AM 31.8561 116.9970 99° East  Level Estimated
03:26AM 31.8382 117.1352 99° East  Level Estimated
03:27AM 31.8201 117.2734 99° East  Level Estimated
03:28AM 31.8019 117.4115 99° East  Level Estimated
03:29AM 31.7836 117.5496 99° East  Level Estimated
03:30AM 31.7651 117.6876 99° East  Level Estimated
03:31AM 31.7464 117.8255 99° East  Level Estimated
03:32AM 31.7276 117.9634 99° East  Level Estimated
03:33AM 31.7086 118.1013 99° East  Level Estimated
03:34AM 31.6895 118.2390 99° East  Level Estimated
03:35AM 31.6703 118.3768 99° East  Level Estimated
03:36AM 31.6509 118.5144 99° East  Level Estimated
03:37AM 31.6313 118.6520 99° East  Level Estimated
03:38AM 31.6117 118.7896 100° East  Level Estimated
03:39AM 31.5918 118.9271 100° East  Level Estimated
03:40AM 31.5718 119.0645 100° East  Level Estimated
03:41AM 31.5517 119.2019 100° East  Level Estimated
03:42AM 31.5314 119.3392 100° East  Level Estimated
03:43AM 31.5110 119.4765 100° East  Level Estimated
03:44AM 31.4904 119.6137 100° East  Level Estimated
03:45AM 31.4697 119.7508 100° East  Level Estimated
03:46AM 31.4488 119.8879 100° East  Level Estimated
03:47AM 31.4278 120.0249 100° East  Level Estimated
03:48AM 31.4067 120.1619 100° East  Level Estimated
03:49AM 31.3853 120.2988 100° East  Level Estimated
03:50AM 31.3639 120.4356 100° East  Level Estimated
03:51AM 31.3423 120.5724 100° East  Level Estimated
03:52AM 31.3206 120.7091 101° East  Level Estimated
03:53AM 31.2987 120.8457 101° East  Level Estimated
03:54AM 31.2766 120.9823 101° East  Level Estimated
03:55AM 31.2545 121.1188 101° East  Level Estimated
03:56AM 31.2321 121.2552 101° East  Level Estimated
03:57AM 31.2097 121.3916 101° East  Level Estimated
03:58AM 31.1871 121.5279 101° East  Level Estimated
03:59AM 31.1643 121.6642 101° East  Level Estimated
04:00AM 31.1428 121.7924 101° East  Level Estimated
04:01AM 31.1428 121.7924 North  Level Estimated
04:02AM 31.1428 121.7924 North  Level Estimated
04:03AM 31.1428 121.7924 North  Level Estimated
04:04AM 31.1428 121.7924 North  Level Estimated
04:04AM 31.4595 120.7567 109° East 373 429 17,600  Level FlightAware ADS-B (ZSSS / SHA)
04:04AM 31.4422 120.8147 108° East 375 432 16,200 -3,100 Descending FlightAware ADS-B (ZSSS / SHA)
04:05AM 31.4247 120.8729 109° East 387 445 14,500 -2,441 Descending FlightAware ADS-B (ZSSS / SHA)
04:05AM 31.4072 120.9301 109° East 367 422 13,800 -700 Descending FlightAware ADS-B (ZSSS / SHA)
04:06AM 31.3911 120.9827 109° East 327 376 13,800  Level FlightAware ADS-B (ZSSS / SHA)
04:06AM 31.3768 121.0293 109° East 294 338 13,800 -700 Level FlightAware ADS-B (ZSSS / SHA)
04:07AM 31.3627 121.0749 109° East 290 334 13,100 -1,200 Descending FlightAware ADS-B (ZSSS / SHA)
04:07AM 31.3493 121.1189 109° East 278 320 12,600 -800 Descending FlightAware ADS-B (ZSSS / SHA)
04:08AM 31.3367 121.1598 109° East 264 304 12,300 -1,500 Descending FlightAware ADS-B (ZSSS / SHA)
04:08AM 31.3243 121.2012 109° East 281 323 11,100 -2,100 Descending FlightAware ADS-B (ZSSS / SHA)
04:09AM 31.3111 121.2449 109° East 288 331 10,200 -943 Descending FlightAware ADS-B (ZSSS / SHA)
04:09AM 31.2946 121.2997 109° East 249 287 10,000 -171 Descending FlightAware ADS-B (ZSSS / SHA)
04:10AM 31.2862 121.3364 88° East 225 259 10,000  Level FlightAware ADS-B (ZSSS / SHA)
04:10AM 31.2868 121.3426 83° East 224 258 10,000 -900 Level FlightAware ADS-B (ZSSS / SHA)
04:10AM 31.2895 121.3597 79° East 222 255 9,700 -1,600 Descending FlightAware ADS-B (ZSSS / SHA)
04:10AM 31.2923 121.3767 78° East 230 265 9,200 -2,000 Descending FlightAware ADS-B (ZSSS / SHA)
04:11AM 31.2956 121.3963 79° East 238 274 8,700 -2,333 Descending FlightAware ADS-B (ZSSS / SHA)
04:11AM 31.2998 121.4222 79° East 257 296 7,800 -2,647 Descending FlightAware ADS-B (ZSSS / SHA)
04:11AM 31.3032 121.4428 79° East 269 310 7,200 -2,690 Descending FlightAware ADS-B (ZSSS / SHA)
04:12AM 31.3071 121.4666 79° East 277 319 6,500 -2,063 Descending FlightAware ADS-B (ZSSS / SHA)
04:12AM 31.3108 121.4882 78° East 276 318 6,100 -1,600 Descending FlightAware ADS-B (ZSSS / SHA)
04:12AM 31.3143 121.5092 79° East 276 318 5,700 -1,862 Descending FlightAware ADS-B (ZSSS / SHA)
04:12AM 31.3184 121.5324 79° East 278 320 5,200 -2,100 Descending FlightAware ADS-B (ZSSS / SHA)
04:12AM 31.3203 121.5394 70° East 280 322 5,000 -1,765 Descending FlightAware ADS-B (ZSSS / SHA)
04:13AM 31.3261 121.5549 65° Northeast 280 322 4,700 -307 Descending FlightAware ADS-B (ZSSS / SHA)
04:16AM 31.3470 121.7106 161° South 187 215 3,900 -275 Descending FlightAware ADS-B (ZSSL)
04:16AM 31.3330 121.7159 161° South 179 206 3,700 -800 Descending FlightAware ADS-B (ZSSL)
04:16AM 31.3212 121.7203 162° South 177 204 3,500 -1,000 Descending FlightAware ADS-B (ZSSL)
04:17AM 31.3094 121.7248 161° South 176 203 3,200 -1,000 Descending FlightAware ADS-B (ZSSL)
04:17AM 31.2978 121.7292 161° South 172 198 3,000 -750 Descending FlightAware ADS-B (ZSSL)
04:17AM 31.2918 121.7315 161° South 169 194 2,900 -750 Descending FlightAware ADS-B (ZSSL)
04:18AM 31.2684 121.7403 162° South 157 181 2,500 -808 Descending FlightAware ADS-B (ZSSL)
04:18AM 31.2552 121.7453 161° South 137 158 2,200 -857 Descending FlightAware ADS-B (ZSSL)
04:18AM 31.2470 121.7484 162° South 126 145 2,000 -615 Descending FlightAware ADS-B (ZSSL)
04:19AM 31.2338 121.7534 162° South 118 136 1,800 -533 Descending FlightAware ADS-B (ZSSL)
04:19AM 31.2235 121.7573 162° South 119 137 1,600 -686 Descending FlightAware ADS-B (ZSSL)
04:19AM 31.2157 121.7602 162° South 119 137 1,400 -600 Descending FlightAware ADS-B (ZSSL)
04:20AM 31.1928 121.7689 162° South 120 138 1,000 -577 Descending FlightAware ADS-B (ZSSL)
04:20AM 31.1882 121.7706 162° South 121 139 900 -581 Descending FlightAware ADS-B (ZSSL)
04:20AM 31.1760 121.7752 161° South 118 136 700 -500 Descending FlightAware ADS-B (ZSSL)
04:21AM 31.1705 121.7774 162° South 117 135 600 -500 Descending FlightAware ADS-B (ZSSL)